sensor_id;sensor_type;location;lat;lon;timestamp;temperature;humidity
64817;DHT22;69411;45.656;11.740;2023-06-24T00:01:02;20.80;74.20
64817;DHT22;69411;45.656;11.740;2023-06-24T00:03:27;20.70;74.40
64817;DHT22;69411;45.656;11.740;2023-06-24T00:05:53;20.70;74.70
64817;DHT22;69411;45.656;11.740;2023-06-24T00:08:22;20.70;74.40
64817;DHT22;69411;45.656;11.740;2023-06-24T00:10:49;20.70;74.40
64817;DHT22;69411;45.656;11.740;2023-06-24T00:13:16;20.60;74.40
64817;DHT22;69411;45.656;11.740;2023-06-24T00:15:42;20.60;74.40
64817;DHT22;69411;45.656;11.740;2023-06-24T00:18:11;20.60;74.50
64817;DHT22;69411;45.656;11.740;2023-06-24T00:20:38;20.60;74.40
64817;DHT22;69411;45.656;11.740;2023-06-24T00:23:03;20.60;74.40
64817;DHT22;69411;45.656;11.740;2023-06-24T00:25:30;20.60;74.50
64817;DHT22;69411;45.656;11.740;2023-06-24T00:27:56;20.60;74.50
64817;DHT22;69411;45.656;11.740;2023-06-24T00:30:22;20.50;75.40
64817;DHT22;69411;45.656;11.740;2023-06-24T00:32:48;20.40;75.30
64817;DHT22;69411;45.656;11.740;2023-06-24T00:35:14;20.40;75.10
64817;DHT22;69411;45.656;11.740;2023-06-24T00:37:41;20.40;75.30
64817;DHT22;69411;45.656;11.740;2023-06-24T00:40:10;20.40;75.00
64817;DHT22;69411;45.656;11.740;2023-06-24T00:42:37;20.40;74.90
64817;DHT22;69411;45.656;11.740;2023-06-24T00:45:04;20.40;74.80
64817;DHT22;69411;45.656;11.740;2023-06-24T00:47:31;20.30;74.80
64817;DHT22;69411;45.656;11.740;2023-06-24T00:49:57;20.30;74.80
64817;DHT22;69411;45.656;11.740;2023-06-24T00:52:23;20.30;74.70
64817;DHT22;69411;45.656;11.740;2023-06-24T00:54:49;20.30;74.80
64817;DHT22;69411;45.656;11.740;2023-06-24T00:57:15;20.30;74.80
64817;DHT22;69411;45.656;11.740;2023-06-24T00:59:44;20.30;75.30
64817;DHT22;69411;45.656;11.740;2023-06-24T01:02:11;20.20;75.10
64817;DHT22;69411;45.656;11.740;2023-06-24T01:04:38;20.20;75.20
64817;DHT22;69411;45.656;11.740;2023-06-24T01:07:05;20.10;75.00
64817;DHT22;69411;45.656;11.740;2023-06-24T01:09:32;20.10;75.10
64817;DHT22;69411;45.656;11.740;2023-06-24T01:11:58;20.00;75.80
64817;DHT22;69411;45.656;11.740;2023-06-24T01:14:24;20.00;75.30
64817;DHT22;69411;45.656;11.740;2023-06-24T01:20:00;20.00;75.20
64817;DHT22;69411;45.656;11.740;2023-06-24T01:31:15;20.10;75.60
64817;DHT22;69411;45.656;11.740;2023-06-24T01:36:40;19.90;75.30
64817;DHT22;69411;45.656;11.740;2023-06-24T01:39:12;20.00;75.30
64817;DHT22;69411;45.656;11.740;2023-06-24T01:41:46;19.90;76.40
64817;DHT22;69411;45.656;11.740;2023-06-24T01:44:14;19.90;75.80
64817;DHT22;69411;45.656;11.740;2023-06-24T01:46:42;19.90;75.80
64817;DHT22;69411;45.656;11.740;2023-06-24T01:49:13;20.00;75.80
64817;DHT22;69411;45.656;11.740;2023-06-24T01:51:41;20.20;75.40
64817;DHT22;69411;45.656;11.740;2023-06-24T01:54:13;20.20;75.40
64817;DHT22;69411;45.656;11.740;2023-06-24T01:56:42;20.10;75.10
64817;DHT22;69411;45.656;11.740;2023-06-24T01:59:10;20.00;75.20
64817;DHT22;69411;45.656;11.740;2023-06-24T02:01:38;20.00;75.30
64817;DHT22;69411;45.656;11.740;2023-06-24T02:04:08;19.90;75.30
64817;DHT22;69411;45.656;11.740;2023-06-24T02:06:36;20.00;75.30
64817;DHT22;69411;45.656;11.740;2023-06-24T02:09:05;20.20;75.30
64817;DHT22;69411;45.656;11.740;2023-06-24T02:11:32;20.10;75.10
64817;DHT22;69411;45.656;11.740;2023-06-24T02:14:00;20.10;75.00
64817;DHT22;69411;45.656;11.740;2023-06-24T02:16:27;20.00;74.90
64817;DHT22;69411;45.656;11.740;2023-06-24T02:18:56;19.90;75.00
64817;DHT22;69411;45.656;11.740;2023-06-24T02:21:23;19.90;75.00
64817;DHT22;69411;45.656;11.740;2023-06-24T02:23:51;19.90;75.10
64817;DHT22;69411;45.656;11.740;2023-06-24T02:26:18;19.80;75.10
64817;DHT22;69411;45.656;11.740;2023-06-24T02:28:44;19.80;75.30
64817;DHT22;69411;45.656;11.740;2023-06-24T02:31:12;19.80;75.30
64817;DHT22;69411;45.656;11.740;2023-06-24T02:33:39;19.70;75.40
64817;DHT22;69411;45.656;11.740;2023-06-24T02:36:04;19.70;75.40
64817;DHT22;69411;45.656;11.740;2023-06-24T02:38:30;19.60;75.40
64817;DHT22;69411;45.656;11.740;2023-06-24T02:40:56;19.60;75.40
64817;DHT22;69411;45.656;11.740;2023-06-24T02:43:24;19.60;75.40
64817;DHT22;69411;45.656;11.740;2023-06-24T02:45:50;19.50;76.00
64817;DHT22;69411;45.656;11.740;2023-06-24T02:48:17;19.50;76.30
64817;DHT22;69411;45.656;11.740;2023-06-24T02:50:44;19.40;76.50
64817;DHT22;69411;45.656;11.740;2023-06-24T02:53:12;19.30;76.60
64817;DHT22;69411;45.656;11.740;2023-06-24T02:55:40;19.30;76.20
64817;DHT22;69411;45.656;11.740;2023-06-24T02:58:07;19.20;76.20
64817;DHT22;69411;45.656;11.740;2023-06-24T03:00:36;19.20;76.00
64817;DHT22;69411;45.656;11.740;2023-06-24T03:03:04;19.20;76.00
64817;DHT22;69411;45.656;11.740;2023-06-24T03:05:31;19.10;76.20
64817;DHT22;69411;45.656;11.740;2023-06-24T03:07:58;19.10;76.20
64817;DHT22;69411;45.656;11.740;2023-06-24T03:10:25;19.10;76.40
64817;DHT22;69411;45.656;11.740;2023-06-24T03:12:51;19.20;76.50
64817;DHT22;69411;45.656;11.740;2023-06-24T03:15:18;19.10;77.00
64817;DHT22;69411;45.656;11.740;2023-06-24T03:17:44;19.10;76.90
64817;DHT22;69411;45.656;11.740;2023-06-24T03:20:10;19.00;76.80
64817;DHT22;69411;45.656;11.740;2023-06-24T03:22:36;19.00;76.60
64817;DHT22;69411;45.656;11.740;2023-06-24T03:25:02;19.10;76.50
64817;DHT22;69411;45.656;11.740;2023-06-24T03:27:28;19.10;76.30
64817;DHT22;69411;45.656;11.740;2023-06-24T03:29:54;19.10;76.50
64817;DHT22;69411;45.656;11.740;2023-06-24T03:32:20;19.00;77.00
64817;DHT22;69411;45.656;11.740;2023-06-24T03:34:46;19.00;77.10
64817;DHT22;69411;45.656;11.740;2023-06-24T03:37:12;19.00;76.80
64817;DHT22;69411;45.656;11.740;2023-06-24T03:39:38;19.00;76.60
64817;DHT22;69411;45.656;11.740;2023-06-24T03:42:04;18.90;76.50
64817;DHT22;69411;45.656;11.740;2023-06-24T03:44:30;18.90;77.20
64817;DHT22;69411;45.656;11.740;2023-06-24T03:46:56;19.00;77.00
64817;DHT22;69411;45.656;11.740;2023-06-24T03:49:22;18.90;76.70
64817;DHT22;69411;45.656;11.740;2023-06-24T03:51:48;19.00;76.80
64817;DHT22;69411;45.656;11.740;2023-06-24T03:54:14;19.00;76.70
64817;DHT22;69411;45.656;11.740;2023-06-24T03:56:40;19.00;76.60
64817;DHT22;69411;45.656;11.740;2023-06-24T03:59:06;19.00;76.50
64817;DHT22;69411;45.656;11.740;2023-06-24T04:01:32;19.00;76.30
64817;DHT22;69411;45.656;11.740;2023-06-24T04:03:58;19.00;76.20
64817;DHT22;69411;45.656;11.740;2023-06-24T04:06:24;19.10;76.10
64817;DHT22;69411;45.656;11.740;2023-06-24T04:08:50;19.10;75.90
64817;DHT22;69411;45.656;11.740;2023-06-24T04:11:18;19.20;75.80
64817;DHT22;69411;45.656;11.740;2023-06-24T04:13:46;19.30;75.80
64817;DHT22;69411;45.656;11.740;2023-06-24T04:16:14;19.40;75.50
64817;DHT22;69411;45.656;11.740;2023-06-24T04:18:40;19.50;75.50
64817;DHT22;69411;45.656;11.740;2023-06-24T04:21:06;19.70;75.40
64817;DHT22;69411;45.656;11.740;2023-06-24T04:23:33;19.80;75.20
64817;DHT22;69411;45.656;11.740;2023-06-24T04:25:59;19.90;74.90
64817;DHT22;69411;45.656;11.740;2023-06-24T04:28:25;20.00;75.00
64817;DHT22;69411;45.656;11.740;2023-06-24T04:30:51;20.20;74.50
64817;DHT22;69411;45.656;11.740;2023-06-24T04:33:18;20.40;74.10
64817;DHT22;69411;45.656;11.740;2023-06-24T04:35:44;20.50;73.80
64817;DHT22;69411;45.656;11.740;2023-06-24T04:38:10;20.70;73.50
64817;DHT22;69411;45.656;11.740;2023-06-24T04:40:36;20.90;73.20
64817;DHT22;69411;45.656;11.740;2023-06-24T04:43:03;21.20;72.90
64817;DHT22;69411;45.656;11.740;2023-06-24T04:45:28;21.40;72.50
64817;DHT22;69411;45.656;11.740;2023-06-24T04:47:54;21.60;72.20
64817;DHT22;69411;45.656;11.740;2023-06-24T04:50:20;21.90;72.00
64817;DHT22;69411;45.656;11.740;2023-06-24T04:52:52;22.30;71.90
64817;DHT22;69411;45.656;11.740;2023-06-24T04:55:19;22.90;71.70
64817;DHT22;69411;45.656;11.740;2023-06-24T04:57:45;23.90;70.40
64817;DHT22;69411;45.656;11.740;2023-06-24T05:00:11;25.10;67.70
64817;DHT22;69411;45.656;11.740;2023-06-24T05:02:37;26.30;65.40
64817;DHT22;69411;45.656;11.740;2023-06-24T05:05:04;27.50;62.90
64817;DHT22;69411;45.656;11.740;2023-06-24T05:07:30;28.50;60.10
64817;DHT22;69411;45.656;11.740;2023-06-24T05:09:56;29.50;57.00
64817;DHT22;69411;45.656;11.740;2023-06-24T05:12:22;30.40;55.00
64817;DHT22;69411;45.656;11.740;2023-06-24T05:14:51;31.10;53.10
64817;DHT22;69411;45.656;11.740;2023-06-24T05:17:20;31.90;51.00
64817;DHT22;69411;45.656;11.740;2023-06-24T05:19:46;32.70;49.30
64817;DHT22;69411;45.656;11.740;2023-06-24T05:22:12;33.50;48.10
64817;DHT22;69411;45.656;11.740;2023-06-24T05:24:38;34.20;46.40
64817;DHT22;69411;45.656;11.740;2023-06-24T05:27:06;34.90;44.80
64817;DHT22;69411;45.656;11.740;2023-06-24T05:29:35;35.40;44.00
64817;DHT22;69411;45.656;11.740;2023-06-24T05:32:01;36.00;42.70
64817;DHT22;69411;45.656;11.740;2023-06-24T05:34:29;36.50;41.60
64817;DHT22;69411;45.656;11.740;2023-06-24T05:36:56;36.90;40.00
64817;DHT22;69411;45.656;11.740;2023-06-24T05:39:22;37.40;39.40
64817;DHT22;69411;45.656;11.740;2023-06-24T05:41:48;38.00;38.50
64817;DHT22;69411;45.656;11.740;2023-06-24T05:44:14;38.60;37.80
64817;DHT22;69411;45.656;11.740;2023-06-24T05:46:41;39.30;37.00
64817;DHT22;69411;45.656;11.740;2023-06-24T05:49:07;40.00;35.80
64817;DHT22;69411;45.656;11.740;2023-06-24T05:51:33;40.60;34.80
64817;DHT22;69411;45.656;11.740;2023-06-24T05:53:59;41.20;34.10
64817;DHT22;69411;45.656;11.740;2023-06-24T05:56:27;41.80;33.30
64817;DHT22;69411;45.656;11.740;2023-06-24T05:58:53;42.40;32.80
64817;DHT22;69411;45.656;11.740;2023-06-24T06:01:19;43.00;32.00
64817;DHT22;69411;45.656;11.740;2023-06-24T06:03:45;43.60;31.70
64817;DHT22;69411;45.656;11.740;2023-06-24T06:06:11;44.20;30.90
64817;DHT22;69411;45.656;11.740;2023-06-24T06:08:37;44.60;30.00
64817;DHT22;69411;45.656;11.740;2023-06-24T06:11:03;45.00;29.60
64817;DHT22;69411;45.656;11.740;2023-06-24T06:13:33;45.50;29.10
64817;DHT22;69411;45.656;11.740;2023-06-24T06:15:59;45.90;28.40
64817;DHT22;69411;45.656;11.740;2023-06-24T06:18:25;46.30;28.00
64817;DHT22;69411;45.656;11.740;2023-06-24T06:20:57;46.70;27.70
64817;DHT22;69411;45.656;11.740;2023-06-24T06:23:23;47.00;27.00
64817;DHT22;69411;45.656;11.740;2023-06-24T06:25:50;47.40;26.50
64817;DHT22;69411;45.656;11.740;2023-06-24T06:28:16;47.80;26.00
64817;DHT22;69411;45.656;11.740;2023-06-24T06:30:42;48.00;25.20
64817;DHT22;69411;45.656;11.740;2023-06-24T06:33:07;48.20;24.80
64817;DHT22;69411;45.656;11.740;2023-06-24T06:35:33;48.20;24.40
64817;DHT22;69411;45.656;11.740;2023-06-24T06:37:59;48.10;24.10
64817;DHT22;69411;45.656;11.740;2023-06-24T06:40:25;47.90;24.20
64817;DHT22;69411;45.656;11.740;2023-06-24T06:42:54;47.00;24.60
64817;DHT22;69411;45.656;11.740;2023-06-24T06:45:26;45.60;25.40
64817;DHT22;69411;45.656;11.740;2023-06-24T06:47:52;44.00;26.30
64817;DHT22;69411;45.656;11.740;2023-06-24T06:50:18;42.30;28.00
64817;DHT22;69411;45.656;11.740;2023-06-24T06:52:44;40.80;29.60
64817;DHT22;69411;45.656;11.740;2023-06-24T06:55:10;39.70;31.10
64817;DHT22;69411;45.656;11.740;2023-06-24T06:57:36;38.70;32.40
64817;DHT22;69411;45.656;11.740;2023-06-24T07:00:03;38.00;33.50
64817;DHT22;69411;45.656;11.740;2023-06-24T07:02:29;37.50;34.30
64817;DHT22;69411;45.656;11.740;2023-06-24T07:04:55;37.00;35.00
64817;DHT22;69411;45.656;11.740;2023-06-24T07:07:21;36.60;35.60
64817;DHT22;69411;45.656;11.740;2023-06-24T07:09:47;36.30;36.10
64817;DHT22;69411;45.656;11.740;2023-06-24T07:12:13;36.10;36.60
64817;DHT22;69411;45.656;11.740;2023-06-24T07:14:39;35.90;37.00
64817;DHT22;69411;45.656;11.740;2023-06-24T07:17:05;35.80;37.40
64817;DHT22;69411;45.656;11.740;2023-06-24T07:19:31;35.70;37.30
64817;DHT22;69411;45.656;11.740;2023-06-24T07:21:57;35.70;37.40
64817;DHT22;69411;45.656;11.740;2023-06-24T07:24:23;35.60;37.30
64817;DHT22;69411;45.656;11.740;2023-06-24T07:26:49;35.50;37.10
64817;DHT22;69411;45.656;11.740;2023-06-24T07:29:16;35.40;37.00
64817;DHT22;69411;45.656;11.740;2023-06-24T07:31:42;35.40;37.00
64817;DHT22;69411;45.656;11.740;2023-06-24T07:34:08;35.40;37.00
64817;DHT22;69411;45.656;11.740;2023-06-24T07:36:34;35.30;36.70
64817;DHT22;69411;45.656;11.740;2023-06-24T07:39:00;35.30;36.40
64817;DHT22;69411;45.656;11.740;2023-06-24T07:41:26;35.30;36.40
64817;DHT22;69411;45.656;11.740;2023-06-24T07:43:51;35.20;36.40
64817;DHT22;69411;45.656;11.740;2023-06-24T07:46:17;35.10;36.70
64817;DHT22;69411;45.656;11.740;2023-06-24T07:48:44;35.00;36.60
64817;DHT22;69411;45.656;11.740;2023-06-24T07:51:10;35.00;36.60
64817;DHT22;69411;45.656;11.740;2023-06-24T07:53:36;34.90;36.30
64817;DHT22;69411;45.656;11.740;2023-06-24T07:56:02;34.90;36.40
64817;DHT22;69411;45.656;11.740;2023-06-24T07:58:28;34.90;36.40
64817;DHT22;69411;45.656;11.740;2023-06-24T08:00:54;34.80;36.60
64817;DHT22;69411;45.656;11.740;2023-06-24T08:03:20;34.70;36.70
64817;DHT22;69411;45.656;11.740;2023-06-24T08:05:47;34.70;36.80
64817;DHT22;69411;45.656;11.740;2023-06-24T08:08:15;34.60;36.90
64817;DHT22;69411;45.656;11.740;2023-06-24T08:10:41;34.50;37.10
64817;DHT22;69411;45.656;11.740;2023-06-24T08:13:06;34.50;37.30
64817;DHT22;69411;45.656;11.740;2023-06-24T08:15:32;34.40;37.30
64817;DHT22;69411;45.656;11.740;2023-06-24T08:17:58;34.40;37.50
64817;DHT22;69411;45.656;11.740;2023-06-24T08:20:24;34.40;37.50
64817;DHT22;69411;45.656;11.740;2023-06-24T08:22:51;34.40;37.40
64817;DHT22;69411;45.656;11.740;2023-06-24T08:25:17;34.20;37.30
64817;DHT22;69411;45.656;11.740;2023-06-24T08:27:43;34.10;37.40
64817;DHT22;69411;45.656;11.740;2023-06-24T08:30:13;34.10;37.10
64817;DHT22;69411;45.656;11.740;2023-06-24T08:32:40;34.00;36.90
64817;DHT22;69411;45.656;11.740;2023-06-24T08:35:07;33.90;37.00
64817;DHT22;69411;45.656;11.740;2023-06-24T08:37:34;33.80;36.80
64817;DHT22;69411;45.656;11.740;2023-06-24T08:40:00;33.70;36.40
64817;DHT22;69411;45.656;11.740;2023-06-24T08:42:26;33.60;36.30
64817;DHT22;69411;45.656;11.740;2023-06-24T08:44:52;33.60;36.50
64817;DHT22;69411;45.656;11.740;2023-06-24T08:47:18;33.60;36.20
64817;DHT22;69411;45.656;11.740;2023-06-24T08:49:47;33.60;35.80
64817;DHT22;69411;45.656;11.740;2023-06-24T08:52:16;33.70;35.60
64817;DHT22;69411;45.656;11.740;2023-06-24T08:54:50;33.80;35.60
64817;DHT22;69411;45.656;11.740;2023-06-24T08:57:16;33.90;35.30
64817;DHT22;69411;45.656;11.740;2023-06-24T08:59:44;34.00;35.30
64817;DHT22;69411;45.656;11.740;2023-06-24T09:02:12;34.10;35.10
64817;DHT22;69411;45.656;11.740;2023-06-24T09:04:41;34.20;35.00
64817;DHT22;69411;45.656;11.740;2023-06-24T09:07:11;34.20;34.90
64817;DHT22;69411;45.656;11.740;2023-06-24T09:09:44;34.10;34.70
64817;DHT22;69411;45.656;11.740;2023-06-24T09:12:13;34.00;33.10
64817;DHT22;69411;45.656;11.740;2023-06-24T09:14:51;33.80;34.10
64817;DHT22;69411;45.656;11.740;2023-06-24T09:17:19;33.80;34.10
64817;DHT22;69411;45.656;11.740;2023-06-24T09:20:06;33.80;34.60
64817;DHT22;69411;45.656;11.740;2023-06-24T09:22:33;33.70;33.60
64817;DHT22;69411;45.656;11.740;2023-06-24T09:25:01;33.50;34.60
64817;DHT22;69411;45.656;11.740;2023-06-24T09:27:31;33.50;34.60
64817;DHT22;69411;45.656;11.740;2023-06-24T09:29:57;33.50;34.70
64817;DHT22;69411;45.656;11.740;2023-06-24T09:32:29;33.50;34.70
64817;DHT22;69411;45.656;11.740;2023-06-24T09:34:58;33.60;34.60
64817;DHT22;69411;45.656;11.740;2023-06-24T09:37:25;33.80;35.00
64817;DHT22;69411;45.656;11.740;2023-06-24T09:39:56;34.00;35.30
64817;DHT22;69411;45.656;11.740;2023-06-24T09:42:22;34.20;35.30
64817;DHT22;69411;45.656;11.740;2023-06-24T09:44:54;34.40;35.00
64817;DHT22;69411;45.656;11.740;2023-06-24T09:47:23;34.50;35.00
64817;DHT22;69411;45.656;11.740;2023-06-24T09:49:58;34.60;35.00
64817;DHT22;69411;45.656;11.740;2023-06-24T09:52:25;34.70;34.90
64817;DHT22;69411;45.656;11.740;2023-06-24T09:54:53;34.60;34.90
64817;DHT22;69411;45.656;11.740;2023-06-24T09:57:29;34.40;34.90
64817;DHT22;69411;45.656;11.740;2023-06-24T09:59:59;34.20;34.40
64817;DHT22;69411;45.656;11.740;2023-06-24T10:02:29;34.10;35.00
64817;DHT22;69411;45.656;11.740;2023-06-24T10:05:00;34.00;35.20
64817;DHT22;69411;45.656;11.740;2023-06-24T10:07:28;34.00;35.60
64817;DHT22;69411;45.656;11.740;2023-06-24T10:09:55;34.10;35.70
64817;DHT22;69411;45.656;11.740;2023-06-24T10:12:21;34.20;35.80
64817;DHT22;69411;45.656;11.740;2023-06-24T10:14:47;34.40;35.70
64817;DHT22;69411;45.656;11.740;2023-06-24T10:17:14;34.40;35.40
64817;DHT22;69411;45.656;11.740;2023-06-24T10:19:41;34.40;35.00
64817;DHT22;69411;45.656;11.740;2023-06-24T10:22:11;34.40;35.10
64817;DHT22;69411;45.656;11.740;2023-06-24T10:24:40;34.40;35.10
64817;DHT22;69411;45.656;11.740;2023-06-24T10:27:21;34.40;35.10
64817;DHT22;69411;45.656;11.740;2023-06-24T10:29:51;34.20;35.20
64817;DHT22;69411;45.656;11.740;2023-06-24T10:32:18;34.10;35.20
64817;DHT22;69411;45.656;11.740;2023-06-24T10:34:47;34.00;35.40
64817;DHT22;69411;45.656;11.740;2023-06-24T10:37:31;33.90;35.40
64817;DHT22;69411;45.656;11.740;2023-06-24T10:40:01;33.70;35.70
64817;DHT22;69411;45.656;11.740;2023-06-24T10:42:38;33.60;36.20
64817;DHT22;69411;45.656;11.740;2023-06-24T10:45:22;33.50;36.40
64817;DHT22;69411;45.656;11.740;2023-06-24T10:47:50;33.40;36.40
64817;DHT22;69411;45.656;11.740;2023-06-24T10:50:22;33.40;36.70
64817;DHT22;69411;45.656;11.740;2023-06-24T10:52:51;33.30;36.80
64817;DHT22;69411;45.656;11.740;2023-06-24T10:55:25;33.30;36.70
64817;DHT22;69411;45.656;11.740;2023-06-24T10:57:53;33.20;36.70
64817;DHT22;69411;45.656;11.740;2023-06-24T11:00:21;33.20;36.90
64817;DHT22;69411;45.656;11.740;2023-06-24T11:02:52;33.20;36.80
64817;DHT22;69411;45.656;11.740;2023-06-24T11:05:20;33.10;36.80
64817;DHT22;69411;45.656;11.740;2023-06-24T11:07:47;33.00;37.10
64817;DHT22;69411;45.656;11.740;2023-06-24T11:10:15;33.00;37.20
64817;DHT22;69411;45.656;11.740;2023-06-24T11:12:47;33.10;37.20
64817;DHT22;69411;45.656;11.740;2023-06-24T11:15:13;33.10;37.20
64817;DHT22;69411;45.656;11.740;2023-06-24T11:17:42;32.90;37.20
64817;DHT22;69411;45.656;11.740;2023-06-24T11:20:12;32.80;37.30
64817;DHT22;69411;45.656;11.740;2023-06-24T11:22:43;32.70;37.30
64817;DHT22;69411;45.656;11.740;2023-06-24T11:25:28;32.60;37.50
64817;DHT22;69411;45.656;11.740;2023-06-24T11:28:00;32.60;37.50
64817;DHT22;69411;45.656;11.740;2023-06-24T11:30:26;32.50;37.90
64817;DHT22;69411;45.656;11.740;2023-06-24T11:32:55;32.40;37.50
64817;DHT22;69411;45.656;11.740;2023-06-24T11:35:21;32.30;37.60
64817;DHT22;69411;45.656;11.740;2023-06-24T11:37:51;32.20;37.60
64817;DHT22;69411;45.656;11.740;2023-06-24T11:40:19;32.00;37.80
64817;DHT22;69411;45.656;11.740;2023-06-24T11:42:50;31.90;38.00
64817;DHT22;69411;45.656;11.740;2023-06-24T11:45:21;31.90;38.10
64817;DHT22;69411;45.656;11.740;2023-06-24T11:47:48;31.90;38.10
64817;DHT22;69411;45.656;11.740;2023-06-24T11:50:30;31.80;38.30
64817;DHT22;69411;45.656;11.740;2023-06-24T11:52:56;31.70;38.10
64817;DHT22;69411;45.656;11.740;2023-06-24T11:55:25;31.70;38.30
64817;DHT22;69411;45.656;11.740;2023-06-24T11:57:57;31.80;38.40
64817;DHT22;69411;45.656;11.740;2023-06-24T12:00:39;31.70;38.20
64817;DHT22;69411;45.656;11.740;2023-06-24T12:03:10;31.70;38.00
64817;DHT22;69411;45.656;11.740;2023-06-24T12:05:38;31.60;38.40
64817;DHT22;69411;45.656;11.740;2023-06-24T12:08:11;31.70;38.50
64817;DHT22;69411;45.656;11.740;2023-06-24T12:10:43;31.70;38.40
64817;DHT22;69411;45.656;11.740;2023-06-24T12:13:10;31.80;38.40
64817;DHT22;69411;45.656;11.740;2023-06-24T12:15:36;31.70;38.50
64817;DHT22;69411;45.656;11.740;2023-06-24T12:18:04;31.70;38.40
64817;DHT22;69411;45.656;11.740;2023-06-24T12:20:31;31.70;38.20
64817;DHT22;69411;45.656;11.740;2023-06-24T12:22:58;31.60;38.30
64817;DHT22;69411;45.656;11.740;2023-06-24T12:25:24;31.60;38.20
64817;DHT22;69411;45.656;11.740;2023-06-24T12:27:50;31.60;38.20
64817;DHT22;69411;45.656;11.740;2023-06-24T12:30:16;31.60;38.40
64817;DHT22;69411;45.656;11.740;2023-06-24T12:32:42;31.60;38.20
64817;DHT22;69411;45.656;11.740;2023-06-24T12:35:09;31.60;38.20
64817;DHT22;69411;45.656;11.740;2023-06-24T12:37:36;31.60;38.10
64817;DHT22;69411;45.656;11.740;2023-06-24T12:40:03;31.60;38.20
64817;DHT22;69411;45.656;11.740;2023-06-24T12:42:29;31.60;38.20
64817;DHT22;69411;45.656;11.740;2023-06-24T12:44:55;31.60;38.30
64817;DHT22;69411;45.656;11.740;2023-06-24T12:47:22;31.50;38.20
64817;DHT22;69411;45.656;11.740;2023-06-24T12:49:49;31.40;38.30
64817;DHT22;69411;45.656;11.740;2023-06-24T12:52:15;31.30;38.40
64817;DHT22;69411;45.656;11.740;2023-06-24T12:54:42;31.40;38.60
64817;DHT22;69411;45.656;11.740;2023-06-24T12:57:07;31.40;38.60
64817;DHT22;69411;45.656;11.740;2023-06-24T12:59:34;31.40;38.60
64817;DHT22;69411;45.656;11.740;2023-06-24T13:02:00;31.50;38.50
64817;DHT22;69411;45.656;11.740;2023-06-24T13:04:26;31.50;38.40
64817;DHT22;69411;45.656;11.740;2023-06-24T13:06:53;31.40;38.40
64817;DHT22;69411;45.656;11.740;2023-06-24T13:09:19;31.40;38.60
64817;DHT22;69411;45.656;11.740;2023-06-24T13:11:46;31.40;38.30
64817;DHT22;69411;45.656;11.740;2023-06-24T13:14:13;31.40;38.40
64817;DHT22;69411;45.656;11.740;2023-06-24T13:16:39;31.40;38.30
64817;DHT22;69411;45.656;11.740;2023-06-24T13:19:07;31.50;38.00
64817;DHT22;69411;45.656;11.740;2023-06-24T13:21:35;31.60;37.30
64817;DHT22;69411;45.656;11.740;2023-06-24T13:24:02;31.60;37.50
64817;DHT22;69411;45.656;11.740;2023-06-24T13:26:28;31.70;37.60
64817;DHT22;69411;45.656;11.740;2023-06-24T13:28:53;31.70;37.50
64817;DHT22;69411;45.656;11.740;2023-06-24T13:31:20;31.70;37.30
64817;DHT22;69411;45.656;11.740;2023-06-24T13:33:47;31.60;36.60
64817;DHT22;69411;45.656;11.740;2023-06-24T13:36:36;31.50;36.60
64817;DHT22;69411;45.656;11.740;2023-06-24T13:39:05;31.40;36.00
64817;DHT22;69411;45.656;11.740;2023-06-24T13:41:31;31.40;36.30
64817;DHT22;69411;45.656;11.740;2023-06-24T13:44:07;31.40;36.60
64817;DHT22;69411;45.656;11.740;2023-06-24T13:46:33;31.30;36.80
64817;DHT22;69411;45.656;11.740;2023-06-24T13:48:59;31.30;37.00
64817;DHT22;69411;45.656;11.740;2023-06-24T13:51:26;31.30;36.90
64817;DHT22;69411;45.656;11.740;2023-06-24T13:53:53;31.30;36.80
64817;DHT22;69411;45.656;11.740;2023-06-24T13:56:23;31.30;36.80
64817;DHT22;69411;45.656;11.740;2023-06-24T13:58:50;31.30;36.80
64817;DHT22;69411;45.656;11.740;2023-06-24T14:01:16;31.40;36.80
64817;DHT22;69411;45.656;11.740;2023-06-24T14:03:42;31.30;36.70
64817;DHT22;69411;45.656;11.740;2023-06-24T14:06:09;31.30;36.80
64817;DHT22;69411;45.656;11.740;2023-06-24T14:08:35;31.30;36.90
64817;DHT22;69411;45.656;11.740;2023-06-24T14:11:02;31.40;37.00
64817;DHT22;69411;45.656;11.740;2023-06-24T14:13:29;31.40;37.20
64817;DHT22;69411;45.656;11.740;2023-06-24T14:15:55;31.40;37.40
64817;DHT22;69411;45.656;11.740;2023-06-24T14:18:21;31.40;37.30
64817;DHT22;69411;45.656;11.740;2023-06-24T14:20:47;31.50;37.20
64817;DHT22;69411;45.656;11.740;2023-06-24T14:23:13;31.50;37.00
64817;DHT22;69411;45.656;11.740;2023-06-24T14:25:39;31.60;37.10
64817;DHT22;69411;45.656;11.740;2023-06-24T14:28:06;31.70;37.30
64817;DHT22;69411;45.656;11.740;2023-06-24T14:30:32;31.80;36.60
64817;DHT22;69411;45.656;11.740;2023-06-24T14:33:00;31.80;36.50
64817;DHT22;69411;45.656;11.740;2023-06-24T14:35:26;31.80;36.60
64817;DHT22;69411;45.656;11.740;2023-06-24T14:37:52;31.90;36.50
64817;DHT22;69411;45.656;11.740;2023-06-24T14:40:18;31.90;36.30
64817;DHT22;69411;45.656;11.740;2023-06-24T14:42:44;31.90;36.40
64817;DHT22;69411;45.656;11.740;2023-06-24T14:45:10;32.00;36.50
64817;DHT22;69411;45.656;11.740;2023-06-24T14:47:36;31.90;35.60
64817;DHT22;69411;45.656;11.740;2023-06-24T14:50:03;31.90;35.90
64817;DHT22;69411;45.656;11.740;2023-06-24T14:52:29;31.90;36.20
64817;DHT22;69411;45.656;11.740;2023-06-24T14:54:55;31.90;36.00
64817;DHT22;69411;45.656;11.740;2023-06-24T14:57:25;31.80;35.50
64817;DHT22;69411;45.656;11.740;2023-06-24T15:00:05;31.60;35.50
64817;DHT22;69411;45.656;11.740;2023-06-24T15:02:33;31.50;35.10
64817;DHT22;69411;45.656;11.740;2023-06-24T15:05:00;31.40;35.70
64817;DHT22;69411;45.656;11.740;2023-06-24T15:07:27;31.40;35.80
64817;DHT22;69411;45.656;11.740;2023-06-24T15:09:53;31.30;35.60
64817;DHT22;69411;45.656;11.740;2023-06-24T15:12:19;31.40;35.30
64817;DHT22;69411;45.656;11.740;2023-06-24T15:14:45;31.40;35.30
64817;DHT22;69411;45.656;11.740;2023-06-24T15:17:12;31.30;35.90
64817;DHT22;69411;45.656;11.740;2023-06-24T15:19:37;31.20;35.80
64817;DHT22;69411;45.656;11.740;2023-06-24T15:22:03;31.10;36.00
64817;DHT22;69411;45.656;11.740;2023-06-24T15:24:29;31.00;36.30
64817;DHT22;69411;45.656;11.740;2023-06-24T15:26:56;31.00;36.50
64817;DHT22;69411;45.656;11.740;2023-06-24T15:29:23;31.00;36.70
64817;DHT22;69411;45.656;11.740;2023-06-24T15:31:50;30.90;36.10